Halle Kroellwitz, Germany

12:49 PM CET on January 31, 2015 (GMT +0100)
ISACHSEN100 | Change Station
CLOSE
Current Station
Personal Weather Station
Location: Halle, SACHSEN-ANHALT
Elevation: 305 ft
Nearby Weather Stations

Elev 305 ft 51.51 °N, 11.89 °E | Updated 8 minutes ago

Light Snow
Light Snow
35.2 °F
Feels Like 35 °F
N
0.0
Wind Variable Wind from SSE

Today
High -- | Low -- °F
--% Chance of Precip.
Yesterday
High -- | Low -- °F
Precip. -- in
7:52 AM 4:59 PM
Waxing Gibbous, 89% visible
Pressure 28.94 in
Visibility 3.7 miles
Clouds Mostly Cloudy 800 ft
Overcast 2000 ft
Windchill 35 °F
Dew Point 33 °F
Humidity 93%
Rainfall 0.04 in
Snow Depth Not available.
UV 1 out of 12
Pollen Not available.
Air Quality Not available.
Flu Activity Not available.
METAR EDDP 311120Z 26011KT 6000 -SN BKN008 OVC020 01/01 Q0980 R26R///99// R26L/290195 TEMPO 2500 SN

More Conditions Fewer Conditions

Pressure 28.94 in
Visibility 3.7 miles
Clouds Mostly Cloudy 800 ft
Overcast 2000 ft
Windchill 35 °F
Dew Point 33 °F
Humidity 93%
Rainfall 0.04 in
Snow Depth Not available.
UV 1 out of 12
Pollen Not available.
Air Quality Not available.
Flu Activity Not available.
METAR EDDP 311120Z 26011KT 6000 -SN BKN008 OVC020 01/01 Q0980 R26R///99// R26L/290195 TEMPO 2500 SN

More Conditions Fewer Conditions

10-Day Weather Forecast

Almanac

Astronomy

Jan. 31, 2015 Rise Set
Actual Time
Civil Twilight
Nautical Twilight
Astronomical Twilight
Moon
Length of Visible Light
Length of Day
Tomorrow will be .
, % of the Moon is Illuminated

Today's Extremes

Country Highs Country Lows

Community

WunderPhotos

Upload Photos

1,792,032 photos uploaded!

WunderBlogs® & News

Nearby

Air Quality

  Air Quality AQ Index Pollutant
Not available.

Snow Depth

Station Depth Elevation

Earthquake Activity

City Distance Mag. Time & Date
Minimum magnitude displayed is 2.5.

Coastal Water Temperatures

Place Temperature

Nearby Weather Stations